createdAt,value
2018-09-18T00:00:44.061Z,94.60
2018-09-18T00:03:12.388Z,94.70
2018-09-18T00:05:40.621Z,94.70
2018-09-18T00:08:08.892Z,95.10
2018-09-18T00:10:37.091Z,94.90
2018-09-18T00:13:05.304Z,95.00
2018-09-18T00:15:33.540Z,95.30
2018-09-18T00:18:01.740Z,95.40
2018-09-18T00:20:29.941Z,95.10
2018-09-18T00:22:58.241Z,95.10
2018-09-18T00:25:26.463Z,95.30
2018-09-18T00:27:54.690Z,95.30
2018-09-18T00:30:22.904Z,95.40
2018-09-18T00:32:51.147Z,95.40
2018-09-18T00:35:19.425Z,95.50
2018-09-18T00:37:47.636Z,95.50
2018-09-18T00:40:15.877Z,95.60
2018-09-18T00:42:44.096Z,95.70
2018-09-18T00:45:12.311Z,95.80
2018-09-18T00:47:40.534Z,95.90
2018-09-18T00:50:08.749Z,96.00
2018-09-18T00:52:36.968Z,96.10
2018-09-18T00:55:05.179Z,96.20
2018-09-18T00:57:33.407Z,96.20
2018-09-18T01:00:01.628Z,96.20
2018-09-18T01:02:29.867Z,96.30
2018-09-18T01:04:58.079Z,96.20
2018-09-18T01:07:26.337Z,96.20
2018-09-18T01:09:54.704Z,96.30
2018-09-18T01:12:22.987Z,96.40
2018-09-18T01:14:51.238Z,96.30
2018-09-18T01:17:19.436Z,96.10
2018-09-18T01:19:47.793Z,96.00
2018-09-18T01:22:15.989Z,95.80
2018-09-18T01:24:44.191Z,95.70
2018-09-18T01:27:12.457Z,95.60
2018-09-18T01:29:41.564Z,95.50
2018-09-18T01:32:10.008Z,95.30
2018-09-18T01:34:38.208Z,95.20
2018-09-18T01:37:06.432Z,95.10
2018-09-18T01:39:34.692Z,95.00
2018-09-18T01:42:02.916Z,95.00
2018-09-18T01:44:31.107Z,95.10
2018-09-18T01:46:59.340Z,95.10
2018-09-18T01:49:27.564Z,95.20
2018-09-18T01:51:55.796Z,95.50
2018-09-18T01:54:24.058Z,95.20
2018-09-18T01:56:52.292Z,95.60
2018-09-18T01:59:20.888Z,95.30
2018-09-18T02:01:49.139Z,95.30
2018-09-18T02:04:17.340Z,95.30
2018-09-18T02:06:46.077Z,95.40
2018-09-18T02:09:14.293Z,95.40
2018-09-18T02:11:42.524Z,95.80
2018-09-18T02:14:10.752Z,95.50
2018-09-18T02:16:38.975Z,95.60
2018-09-18T02:19:07.176Z,95.40
2018-09-18T02:21:35.569Z,95.30
2018-09-18T02:24:03.900Z,95.20
2018-09-18T02:26:32.155Z,95.30
2018-09-18T02:29:00.432Z,95.30
2018-09-18T02:31:28.691Z,95.30
2018-09-18T02:33:56.909Z,95.30
2018-09-18T02:36:25.102Z,95.30
2018-09-18T02:38:53.318Z,95.30
2018-09-18T02:41:22.136Z,95.50
2018-09-18T02:43:50.324Z,95.30
2018-09-18T02:46:18.591Z,95.40
2018-09-18T02:48:46.839Z,95.40
2018-09-18T02:51:15.028Z,95.40
2018-09-18T02:53:43.271Z,95.50
2018-09-18T02:56:11.539Z,95.50
2018-09-18T02:58:39.760Z,95.60
2018-09-18T03:01:07.964Z,95.70
2018-09-18T03:03:36.180Z,95.80
2018-09-18T03:06:04.396Z,95.90
2018-09-18T03:08:32.592Z,96.10
2018-09-18T03:11:00.812Z,96.20
2018-09-18T03:13:29.053Z,96.20
2018-09-18T03:15:57.284Z,96.20
2018-09-18T03:18:25.620Z,96.30
2018-09-18T03:20:53.908Z,96.20
2018-09-18T03:23:22.113Z,96.10
2018-09-18T03:25:50.355Z,96.20
2018-09-18T03:28:18.625Z,96.20
2018-09-18T03:30:46.813Z,96.20
2018-09-18T03:33:15.028Z,96.10
2018-09-18T03:35:43.504Z,96.10
2018-09-18T03:38:11.729Z,96.10
2018-09-18T03:40:39.959Z,96.40
2018-09-18T03:43:08.180Z,96.10
2018-09-18T03:45:36.399Z,96.20
2018-09-18T03:48:04.644Z,96.30
2018-09-18T03:50:32.855Z,96.80
2018-09-18T03:53:01.112Z,96.60
2018-09-18T03:55:29.358Z,96.70
2018-09-18T03:57:57.596Z,96.80
2018-09-18T04:00:25.884Z,96.70
2018-09-18T04:02:54.196Z,96.70
2018-09-18T04:05:22.352Z,96.70
2018-09-18T04:07:50.556Z,96.90
2018-09-18T04:10:18.764Z,96.80
2018-09-18T04:12:46.979Z,96.90
2018-09-18T04:15:15.204Z,96.90
2018-09-18T04:17:43.412Z,96.90
2018-09-18T04:20:11.657Z,96.90
2018-09-18T04:22:39.884Z,96.90
2018-09-18T04:25:08.249Z,96.90
2018-09-18T04:27:36.736Z,97.00
2018-09-18T04:30:04.924Z,97.00
2018-09-18T04:32:33.352Z,97.00
2018-09-18T04:35:01.560Z,97.10
2018-09-18T04:37:29.816Z,97.20
2018-09-18T04:39:58.017Z,97.30
2018-09-18T04:42:26.239Z,97.30
2018-09-18T04:44:54.481Z,97.30
2018-09-18T04:47:22.708Z,97.30
2018-09-18T04:49:50.896Z,97.30
2018-09-18T04:52:19.119Z,97.30
2018-09-18T04:54:47.528Z,97.20
2018-09-18T04:57:15.665Z,97.30
2018-09-18T04:59:43.908Z,97.30
2018-09-18T05:02:12.533Z,97.20
2018-09-18T05:04:40.655Z,97.00
2018-09-18T05:07:08.885Z,96.90
2018-09-18T05:09:37.113Z,96.70
2018-09-18T05:12:05.392Z,96.50
2018-09-18T05:14:33.655Z,96.30
2018-09-18T05:17:01.879Z,96.10
2018-09-18T05:19:30.198Z,96.00
2018-09-18T05:21:58.421Z,96.00
2018-09-18T05:24:26.656Z,96.00
2018-09-18T05:26:54.851Z,96.00
2018-09-18T05:29:23.096Z,96.10
2018-09-18T05:31:51.295Z,96.10
2018-09-18T05:34:19.528Z,96.20
2018-09-18T05:36:47.727Z,96.30
2018-09-18T05:39:16.017Z,96.20
2018-09-18T05:41:44.225Z,96.20
2018-09-18T05:44:12.484Z,96.20
2018-09-18T05:46:40.733Z,96.20
2018-09-18T05:49:08.955Z,96.20
2018-09-18T05:51:37.159Z,96.20
2018-09-18T05:54:05.404Z,96.10
2018-09-18T05:56:34.481Z,96.10
2018-09-18T05:59:02.689Z,96.10
2018-09-18T06:01:30.991Z,96.10
2018-09-18T06:03:59.270Z,96.10
2018-09-18T06:06:27.528Z,96.10
2018-09-18T06:08:55.759Z,96.10
2018-09-18T06:11:23.974Z,96.50
2018-09-18T06:13:52.208Z,96.10
2018-09-18T06:16:20.448Z,96.10
2018-09-18T06:18:48.718Z,96.10
2018-09-18T06:21:16.896Z,96.20
2018-09-18T06:23:45.148Z,96.20
2018-09-18T06:26:13.460Z,96.30
2018-09-18T06:28:41.651Z,96.50
2018-09-18T06:31:09.921Z,96.30
2018-09-18T06:33:38.133Z,96.20
2018-09-18T06:36:06.426Z,96.20
2018-09-18T06:38:34.623Z,96.10
2018-09-18T06:41:02.878Z,96.00
2018-09-18T06:43:31.900Z,95.90
2018-09-18T06:46:00.132Z,95.70
2018-09-18T06:48:28.465Z,95.60
2018-09-18T06:50:56.655Z,95.40
2018-09-18T06:53:24.876Z,95.20
2018-09-18T06:55:53.067Z,95.10
2018-09-18T06:58:21.279Z,95.00
2018-09-18T07:00:49.520Z,94.80
2018-09-18T07:03:17.739Z,94.70
2018-09-18T07:05:46.381Z,94.60
2018-09-18T07:08:14.580Z,94.60
2018-09-18T07:10:42.808Z,94.50
2018-09-18T07:13:11.041Z,94.30
2018-09-18T07:15:39.376Z,94.20
2018-09-18T07:18:07.629Z,94.30
2018-09-18T07:20:35.804Z,93.80
2018-09-18T07:23:04.025Z,93.70
2018-09-18T07:25:32.381Z,93.50
2018-09-18T07:28:00.592Z,93.20
2018-09-18T07:30:28.800Z,93.00
2018-09-18T07:32:57.081Z,92.70
2018-09-18T07:35:25.271Z,92.40
2018-09-18T07:37:53.496Z,92.10
2018-09-18T07:40:21.688Z,91.70
2018-09-18T07:42:49.988Z,91.40
2018-09-18T07:45:18.255Z,91.20
2018-09-18T07:47:46.472Z,90.90
2018-09-18T07:50:14.751Z,90.60
2018-09-18T07:52:43.004Z,90.50
2018-09-18T07:55:11.217Z,90.30
2018-09-18T07:57:39.447Z,90.00
2018-09-18T08:00:07.940Z,89.60
2018-09-18T08:02:36.180Z,89.10
2018-09-18T08:05:04.468Z,88.50
2018-09-18T08:07:32.678Z,88.10
2018-09-18T08:10:00.903Z,87.60
2018-09-18T08:12:29.100Z,87.40
2018-09-18T08:14:58.248Z,86.60
2018-09-18T08:17:26.481Z,86.00
2018-09-18T08:19:54.776Z,85.50
2018-09-18T08:22:23.048Z,84.70
2018-09-18T08:24:51.256Z,84.20
2018-09-18T08:27:19.528Z,83.80
2018-09-18T08:29:47.763Z,83.50
2018-09-18T08:32:15.963Z,83.20
2018-09-18T08:34:44.192Z,82.80
2018-09-18T08:37:12.424Z,82.30
2018-09-18T08:39:40.913Z,81.80
2018-09-18T08:42:09.064Z,81.40
2018-09-18T08:44:37.264Z,80.80
2018-09-18T08:47:05.537Z,80.30
2018-09-18T08:49:33.727Z,80.00
2018-09-18T08:52:01.981Z,79.40
2018-09-18T08:54:30.384Z,78.70
2018-09-18T08:56:58.567Z,78.00
2018-09-18T08:59:33.555Z,77.50
2018-09-18T09:02:01.807Z,77.10
2018-09-18T09:04:30.051Z,76.50
2018-09-18T09:06:58.290Z,75.90
2018-09-18T09:09:26.550Z,75.50
2018-09-18T09:11:54.716Z,74.90
2018-09-18T09:14:22.997Z,74.50
2018-09-18T09:16:51.119Z,73.90
2018-09-18T09:19:19.349Z,73.70
2018-09-18T09:21:47.688Z,73.50
2018-09-18T09:24:15.844Z,73.20
2018-09-18T09:26:45.236Z,72.40
2018-09-18T09:29:13.478Z,71.80
2018-09-18T09:31:42.260Z,71.60
2018-09-18T09:34:10.479Z,70.90
2018-09-18T09:36:38.690Z,70.70
2018-09-18T09:39:09.501Z,70.10
2018-09-18T09:41:37.784Z,69.70
2018-09-18T09:44:06.000Z,69.60
2018-09-18T09:46:34.249Z,69.20
2018-09-18T09:49:02.437Z,68.40
2018-09-18T09:51:30.789Z,67.90
2018-09-18T09:53:58.936Z,67.30
2018-09-18T09:56:27.433Z,66.60
2018-09-18T09:58:55.624Z,65.30
2018-09-18T10:01:29.349Z,64.20
2018-09-18T10:03:57.547Z,62.90
2018-09-18T10:06:26.204Z,62.50
2018-09-18T10:08:54.467Z,61.70
2018-09-18T10:11:22.732Z,61.70
2018-09-18T10:13:50.964Z,61.50
2018-09-18T10:16:19.255Z,60.90
2018-09-18T10:18:47.496Z,60.70
2018-09-18T10:21:15.720Z,60.50
2018-09-18T10:23:43.960Z,59.80
2018-09-18T10:26:12.224Z,59.80
2018-09-18T10:28:40.394Z,59.70
2018-09-18T10:31:08.596Z,59.70
2018-09-18T10:33:36.784Z,59.20
2018-09-18T10:36:05.007Z,58.30
2018-09-18T10:38:33.256Z,57.70
2018-09-18T10:41:01.575Z,57.20
2018-09-18T10:43:29.685Z,57.10
2018-09-18T10:45:57.954Z,57.10
2018-09-18T10:48:26.171Z,57.00
2018-09-18T10:50:54.358Z,57.00
2018-09-18T10:53:22.571Z,56.50
2018-09-18T10:55:50.793Z,55.90
2018-09-18T10:58:18.996Z,55.70
2018-09-18T11:00:47.227Z,55.50
2018-09-18T11:03:15.447Z,55.10
2018-09-18T11:05:43.733Z,54.50
2018-09-18T11:08:12.040Z,53.80
2018-09-18T11:10:40.156Z,53.20
2018-09-18T11:13:08.446Z,52.60
2018-09-18T11:15:36.716Z,51.90
2018-09-18T11:18:04.975Z,51.20
2018-09-18T11:20:33.143Z,50.90
2018-09-18T11:23:01.750Z,50.00
2018-09-18T11:25:30.001Z,49.30
2018-09-18T11:27:58.214Z,49.00
2018-09-18T11:30:26.431Z,48.80
2018-09-18T11:32:54.771Z,47.10
2018-09-18T11:35:22.839Z,46.20
2018-09-18T11:37:51.756Z,46.10
2018-09-18T11:40:19.956Z,45.90
2018-09-18T11:42:48.157Z,45.70
2018-09-18T11:45:16.388Z,45.80
2018-09-18T11:47:44.624Z,45.20
2018-09-18T11:50:12.848Z,45.10
2018-09-18T11:52:41.105Z,45.00
2018-09-18T11:55:09.285Z,44.50
2018-09-18T11:57:37.524Z,44.30
2018-09-18T12:00:05.724Z,43.50
2018-09-18T12:02:34.945Z,43.50
2018-09-18T12:05:03.198Z,43.50
2018-09-18T12:07:31.369Z,43.80
2018-09-18T12:09:59.600Z,43.90
2018-09-18T12:12:27.801Z,43.90
2018-09-18T12:14:56.016Z,43.50
2018-09-18T12:17:24.212Z,43.30
2018-09-18T12:19:52.788Z,43.20
2018-09-18T12:22:21.082Z,43.30
2018-09-18T12:24:49.240Z,43.50
2018-09-18T12:27:17.866Z,43.50
2018-09-18T12:29:46.069Z,43.70
2018-09-18T12:32:14.297Z,43.90
2018-09-18T12:34:42.521Z,44.00
2018-09-18T12:37:10.861Z,44.00
2018-09-18T12:39:39.056Z,44.20
2018-09-18T12:42:07.492Z,44.30
2018-09-18T12:44:35.596Z,44.20
2018-09-18T12:47:03.828Z,44.10
2018-09-18T12:49:32.242Z,44.00
2018-09-18T12:52:00.756Z,44.20
2018-09-18T12:54:29.088Z,44.20
2018-09-18T12:56:57.458Z,44.00
2018-09-18T12:59:25.680Z,44.00
2018-09-18T13:01:53.876Z,43.80
2018-09-18T13:04:22.111Z,43.40
2018-09-18T13:06:50.431Z,43.30
2018-09-18T13:09:18.619Z,42.90
2018-09-18T13:11:46.828Z,42.50
2018-09-18T13:14:15.137Z,41.80
2018-09-18T13:16:43.360Z,41.70
2018-09-18T13:19:11.688Z,41.40
2018-09-18T13:21:39.912Z,41.20
2018-09-18T13:24:08.174Z,40.90
2018-09-18T13:26:36.503Z,40.90
2018-09-18T13:29:04.685Z,40.50
2018-09-18T13:31:32.880Z,40.50
2018-09-18T13:34:01.104Z,40.80
2018-09-18T13:36:29.389Z,41.00
2018-09-18T13:38:57.587Z,41.10
2018-09-18T13:41:25.986Z,41.10
2018-09-18T13:43:54.027Z,41.30
2018-09-18T13:46:22.309Z,41.70
2018-09-18T13:48:50.459Z,41.70
2018-09-18T13:51:19.129Z,41.60
2018-09-18T13:53:47.357Z,41.70
2018-09-18T13:56:15.669Z,41.90
2018-09-18T13:58:43.897Z,42.10
2018-09-18T14:01:12.244Z,42.20
2018-09-18T14:03:40.445Z,42.50
2018-09-18T14:06:08.772Z,42.60
2018-09-18T14:08:37.070Z,42.50
2018-09-18T14:11:05.260Z,42.50
2018-09-18T14:13:34.104Z,42.60
2018-09-18T14:16:02.319Z,42.80
2018-09-18T14:18:30.524Z,42.80
2018-09-18T14:20:58.761Z,42.80
2018-09-18T14:23:26.976Z,43.00
2018-09-18T14:25:55.176Z,43.10
2018-09-18T14:28:23.448Z,43.20
2018-09-18T14:30:51.692Z,43.10
2018-09-18T14:33:19.921Z,43.10
2018-09-18T14:35:48.570Z,43.00
2018-09-18T14:38:16.810Z,43.00
2018-09-18T14:40:45.068Z,43.00
2018-09-18T14:43:13.308Z,43.00
2018-09-18T14:45:41.545Z,43.20
2018-09-18T14:48:09.756Z,43.30
2018-09-18T14:50:37.990Z,43.00
2018-09-18T14:53:06.266Z,42.80
2018-09-18T14:55:34.514Z,42.80
2018-09-18T14:58:02.849Z,42.80
2018-09-18T15:00:31.056Z,43.00
2018-09-18T15:02:59.292Z,43.40
2018-09-18T15:05:27.541Z,43.70
2018-09-18T15:07:55.787Z,44.10
2018-09-18T15:10:30.676Z,44.40
2018-09-18T15:12:58.940Z,44.60
2018-09-18T15:15:27.251Z,44.90
2018-09-18T15:17:55.532Z,45.30
2018-09-18T15:20:23.753Z,45.60
2018-09-18T15:22:55.439Z,46.00
2018-09-18T15:25:23.700Z,46.40
2018-09-18T15:27:52.117Z,46.80
2018-09-18T15:30:20.669Z,47.20
2018-09-18T15:32:48.948Z,47.60
2018-09-18T15:35:17.198Z,48.00
2018-09-18T15:37:45.541Z,48.40
2018-09-18T15:40:13.812Z,48.70
2018-09-18T15:42:42.051Z,49.10
2018-09-18T15:45:10.369Z,49.50
2018-09-18T15:47:38.583Z,49.70
2018-09-18T15:50:06.838Z,50.70
2018-09-18T15:52:35.078Z,50.40
2018-09-18T15:55:03.383Z,50.70
2018-09-18T15:57:31.559Z,50.80
2018-09-18T15:59:59.898Z,51.10
2018-09-18T16:02:28.159Z,51.20
2018-09-18T16:04:56.440Z,51.30
2018-09-18T16:07:24.664Z,51.40
2018-09-18T16:09:52.945Z,51.40
2018-09-18T16:12:21.076Z,51.40
2018-09-18T16:14:49.407Z,51.50
2018-09-18T16:17:17.528Z,51.60
2018-09-18T16:19:45.775Z,51.60
2018-09-18T16:22:15.002Z,51.80
2018-09-18T16:24:43.329Z,51.90
2018-09-18T16:27:12.128Z,52.10
2018-09-18T16:29:40.683Z,52.40
2018-09-18T16:32:08.892Z,52.60
2018-09-18T16:34:37.176Z,52.80
2018-09-18T16:37:05.368Z,53.10
2018-09-18T16:39:33.589Z,53.30
2018-09-18T16:42:01.834Z,53.80
2018-09-18T16:44:30.083Z,53.70
2018-09-18T16:46:58.549Z,54.10
2018-09-18T16:49:26.752Z,54.20
2018-09-18T16:51:54.960Z,54.50
2018-09-18T16:54:23.250Z,54.80
2018-09-18T16:56:51.441Z,55.00
2018-09-18T16:59:19.717Z,55.20
2018-09-18T17:01:47.997Z,55.40
2018-09-18T17:04:16.198Z,55.60
2018-09-18T17:06:44.609Z,55.90
2018-09-18T17:09:12.882Z,56.10
2018-09-18T17:11:41.116Z,56.40
2018-09-18T17:14:09.385Z,56.70
2018-09-18T17:16:37.668Z,56.90
2018-09-18T17:19:05.964Z,57.50
2018-09-18T17:21:34.215Z,56.70
2018-09-18T17:24:02.408Z,56.60
2018-09-18T17:26:31.495Z,56.50
2018-09-18T17:28:59.885Z,56.50
2018-09-18T17:31:28.193Z,56.80
2018-09-18T17:33:56.586Z,57.10
2018-09-18T17:36:24.872Z,57.10
2018-09-18T17:38:53.151Z,57.10
2018-09-18T17:41:21.608Z,57.10
2018-09-18T17:43:50.848Z,57.10
2018-09-18T17:46:19.058Z,57.40
2018-09-18T17:48:47.300Z,57.40
2018-09-18T17:51:15.527Z,57.70
2018-09-18T17:53:44.023Z,58.00
2018-09-18T17:56:12.260Z,58.40
2018-09-18T17:58:40.480Z,58.70
2018-09-18T18:01:08.707Z,58.80
2018-09-18T18:03:36.996Z,58.60
2018-09-18T18:06:05.285Z,58.50
2018-09-18T18:08:33.812Z,58.40
2018-09-18T18:11:02.092Z,58.40
2018-09-18T18:13:30.247Z,58.70
2018-09-18T18:15:58.460Z,58.90
2018-09-18T18:18:26.685Z,59.20
2018-09-18T18:20:55.039Z,59.60
2018-09-18T18:23:23.183Z,60.10
2018-09-18T18:25:51.391Z,60.50
2018-09-18T18:28:19.642Z,61.10
2018-09-18T18:30:48.560Z,61.70
2018-09-18T18:33:16.860Z,62.30
2018-09-18T18:35:51.560Z,62.90
2018-09-18T18:38:19.785Z,63.30
2018-09-18T18:40:48.564Z,63.50
2018-09-18T18:43:16.725Z,63.70
2018-09-18T18:45:44.973Z,64.10
2018-09-18T18:48:14.451Z,64.40
2018-09-18T18:50:42.636Z,64.50
2018-09-18T18:53:11.285Z,64.60
2018-09-18T18:55:39.720Z,64.90
2018-09-18T18:58:08.032Z,65.00
2018-09-18T19:00:36.681Z,65.40
2018-09-18T19:03:04.843Z,65.50
2018-09-18T19:05:33.078Z,65.70
2018-09-18T19:08:01.291Z,65.50
2018-09-18T19:10:29.554Z,65.40
2018-09-18T19:12:57.763Z,65.30
2018-09-18T19:15:27.534Z,64.70
2018-09-18T19:17:55.769Z,64.30
2018-09-18T19:20:24.043Z,64.30
2018-09-18T19:22:52.267Z,64.40
2018-09-18T19:25:20.539Z,64.30
2018-09-18T19:27:48.848Z,64.30
2018-09-18T19:30:17.226Z,64.70
2018-09-18T19:32:45.606Z,65.00
2018-09-18T19:35:20.132Z,65.50
2018-09-18T19:37:48.423Z,66.20
2018-09-18T19:40:16.679Z,66.70
2018-09-18T19:42:45.036Z,67.20
2018-09-18T19:45:13.262Z,67.80
2018-09-18T19:47:41.514Z,68.30
2018-09-18T19:50:14.887Z,68.60
2018-09-18T19:52:43.822Z,68.90
2018-09-18T19:55:12.323Z,69.10
2018-09-18T19:57:40.606Z,69.30
2018-09-18T20:00:09.531Z,69.30
2018-09-18T20:02:37.804Z,69.50
2018-09-18T20:05:06.034Z,69.60
2018-09-18T20:07:34.374Z,69.60
2018-09-18T20:10:02.971Z,69.60
2018-09-18T20:12:31.210Z,69.60
2018-09-18T20:14:59.504Z,69.80
2018-09-18T20:17:27.817Z,69.90
2018-09-18T20:19:56.289Z,69.90
2018-09-18T20:22:25.163Z,70.10
2018-09-18T20:24:53.366Z,70.30
2018-09-18T20:27:21.988Z,70.70
2018-09-18T20:29:50.238Z,70.80
2018-09-18T20:32:18.492Z,71.10
2018-09-18T20:34:46.695Z,71.40
2018-09-18T20:37:15.196Z,71.70
2018-09-18T20:39:43.512Z,72.00
2018-09-18T20:42:11.767Z,72.10
2018-09-18T20:44:40.058Z,72.20
2018-09-18T20:47:08.324Z,72.30
2018-09-18T20:49:36.572Z,73.30
2018-09-18T20:52:04.789Z,72.80
2018-09-18T20:54:33.038Z,72.80
2018-09-18T20:57:01.282Z,73.00
2018-09-18T20:59:29.534Z,73.40
2018-09-18T21:01:58.012Z,73.80
2018-09-18T21:04:26.223Z,74.20
2018-09-18T21:06:54.443Z,74.40
2018-09-18T21:09:22.706Z,74.70
2018-09-18T21:11:50.927Z,75.00
2018-09-18T21:14:19.404Z,75.20
2018-09-18T21:16:47.711Z,75.70
2018-09-18T21:19:15.988Z,75.80
2018-09-18T21:21:44.214Z,76.20
2018-09-18T21:24:12.516Z,76.50
2018-09-18T21:26:40.756Z,76.60
2018-09-18T21:29:08.971Z,76.60
2018-09-18T21:31:37.195Z,76.70
2018-09-18T21:34:05.470Z,77.10
2018-09-18T21:36:34.297Z,77.40
2018-09-18T21:39:02.576Z,77.70
2018-09-18T21:41:30.814Z,78.20
2018-09-18T21:43:59.129Z,78.60
2018-09-18T21:46:27.332Z,79.00
2018-09-18T21:48:56.564Z,79.10
2018-09-18T21:51:24.825Z,79.30
2018-09-18T21:53:53.037Z,79.70
2018-09-18T21:56:21.251Z,80.20
2018-09-18T21:58:49.477Z,80.50
2018-09-18T22:01:17.776Z,80.80
2018-09-18T22:03:46.000Z,81.10
2018-09-18T22:06:14.288Z,81.70
2018-09-18T22:08:42.579Z,82.10
2018-09-18T22:11:10.872Z,82.60
2018-09-18T22:13:39.064Z,83.10
2018-09-18T22:16:07.287Z,83.60
2018-09-18T22:18:35.510Z,84.10
2018-09-18T22:21:03.728Z,84.30
2018-09-18T22:23:31.965Z,84.60
2018-09-18T22:26:00.206Z,84.70
2018-09-18T22:28:28.436Z,84.60
2018-09-18T22:30:56.723Z,84.40
2018-09-18T22:33:25.064Z,84.10
2018-09-18T22:35:53.294Z,84.00
2018-09-18T22:38:21.516Z,84.10
2018-09-18T22:40:49.722Z,84.10
2018-09-18T22:43:18.014Z,84.20
2018-09-18T22:45:46.172Z,84.20
2018-09-18T22:48:14.455Z,84.60
2018-09-18T22:50:42.697Z,84.70
2018-09-18T22:53:10.961Z,84.90
2018-09-18T22:55:39.170Z,85.10
2018-09-18T22:58:07.389Z,85.30
2018-09-18T23:00:35.687Z,85.50
2018-09-18T23:03:03.912Z,85.80
2018-09-18T23:05:32.119Z,86.10
2018-09-18T23:08:00.358Z,86.60
2018-09-18T23:10:29.509Z,87.10
2018-09-18T23:12:57.736Z,87.60
2018-09-18T23:15:25.937Z,88.50
2018-09-18T23:17:54.143Z,88.40
2018-09-18T23:20:22.353Z,88.70
2018-09-18T23:22:50.554Z,89.20
2018-09-18T23:25:18.809Z,89.70
2018-09-18T23:27:47.772Z,90.00
2018-09-18T23:30:15.980Z,90.00
2018-09-18T23:32:45.073Z,90.10
2018-09-18T23:35:13.303Z,90.30
2018-09-18T23:37:41.545Z,90.50
2018-09-18T23:40:10.356Z,90.60
2018-09-18T23:42:38.626Z,90.70
2018-09-18T23:45:06.843Z,90.80
2018-09-18T23:47:35.070Z,90.80
2018-09-18T23:50:03.341Z,90.80
2018-09-18T23:52:31.574Z,90.80
2018-09-18T23:54:59.836Z,90.80
2018-09-18T23:57:28.075Z,90.90
2018-09-18T23:59:56.307Z,91.00
